sensor_id;sensor_type;location;lat;lon;timestamp;P1;durP1;ratioP1;P2;durP2;ratioP2
7835;SDS011;3963;42.658;23.298;2023-10-19T00:02:23;34.40;;;15.73;;
7835;SDS011;3963;42.658;23.298;2023-10-19T00:04:50;35.17;;;16.10;;
7835;SDS011;3963;42.658;23.298;2023-10-19T00:07:17;33.43;;;14.27;;
7835;SDS011;3963;42.658;23.298;2023-10-19T00:09:44;21.27;;;12.83;;
7835;SDS011;3963;42.658;23.298;2023-10-19T00:12:13;21.57;;;12.03;;
7835;SDS011;3963;42.658;23.298;2023-10-19T00:14:41;26.43;;;12.37;;
7835;SDS011;3963;42.658;23.298;2023-10-19T00:17:07;24.73;;;13.77;;
7835;SDS011;3963;42.658;23.298;2023-10-19T00:19:36;24.20;;;12.60;;
7835;SDS011;3963;42.658;23.298;2023-10-19T00:22:04;24.97;;;11.90;;
7835;SDS011;3963;42.658;23.298;2023-10-19T00:24:42;26.30;;;13.67;;
7835;SDS011;3963;42.658;23.298;2023-10-19T00:27:10;21.73;;;12.27;;
7835;SDS011;3963;42.658;23.298;2023-10-19T00:29:42;20.67;;;12.97;;
7835;SDS011;3963;42.658;23.298;2023-10-19T00:32:15;23.17;;;12.63;;
7835;SDS011;3963;42.658;23.298;2023-10-19T00:34:44;21.77;;;13.00;;
7835;SDS011;3963;42.658;23.298;2023-10-19T00:37:16;18.87;;;11.67;;
7835;SDS011;3963;42.658;23.298;2023-10-19T00:39:53;24.90;;;13.90;;
7835;SDS011;3963;42.658;23.298;2023-10-19T00:42:21;24.40;;;12.30;;
7835;SDS011;3963;42.658;23.298;2023-10-19T00:44:54;20.30;;;12.10;;
7835;SDS011;3963;42.658;23.298;2023-10-19T00:47:30;19.53;;;11.63;;
7835;SDS011;3963;42.658;23.298;2023-10-19T00:50:05;22.03;;;12.83;;
7835;SDS011;3963;42.658;23.298;2023-10-19T00:52:37;22.53;;;11.73;;
7835;SDS011;3963;42.658;23.298;2023-10-19T00:55:10;17.87;;;11.13;;
7835;SDS011;3963;42.658;23.298;2023-10-19T00:57:38;18.97;;;11.50;;
7835;SDS011;3963;42.658;23.298;2023-10-19T01:00:08;19.17;;;11.57;;
7835;SDS011;3963;42.658;23.298;2023-10-19T01:02:37;19.93;;;10.60;;
7835;SDS011;3963;42.658;23.298;2023-10-19T01:05:08;18.27;;;11.33;;
7835;SDS011;3963;42.658;23.298;2023-10-19T01:07:38;16.97;;;10.63;;
7835;SDS011;3963;42.658;23.298;2023-10-19T01:10:07;15.60;;;10.33;;
7835;SDS011;3963;42.658;23.298;2023-10-19T01:12:38;18.37;;;10.93;;
7835;SDS011;3963;42.658;23.298;2023-10-19T01:15:08;16.40;;;10.43;;
7835;SDS011;3963;42.658;23.298;2023-10-19T01:17:39;17.40;;;10.90;;
7835;SDS011;3963;42.658;23.298;2023-10-19T01:20:09;17.47;;;11.27;;
7835;SDS011;3963;42.658;23.298;2023-10-19T01:22:50;16.30;;;10.07;;
7835;SDS011;3963;42.658;23.298;2023-10-19T01:25:31;16.00;;;10.63;;
7835;SDS011;3963;42.658;23.298;2023-10-19T01:28:01;21.83;;;12.10;;
7835;SDS011;3963;42.658;23.298;2023-10-19T01:30:33;20.20;;;12.60;;
7835;SDS011;3963;42.658;23.298;2023-10-19T01:33:01;20.40;;;11.40;;
7835;SDS011;3963;42.658;23.298;2023-10-19T01:35:29;18.67;;;11.50;;
7835;SDS011;3963;42.658;23.298;2023-10-19T01:38:18;16.70;;;10.87;;
7835;SDS011;3963;42.658;23.298;2023-10-19T01:40:44;20.10;;;11.60;;
7835;SDS011;3963;42.658;23.298;2023-10-19T01:43:13;15.67;;;10.10;;
7835;SDS011;3963;42.658;23.298;2023-10-19T01:45:46;21.70;;;12.37;;
7835;SDS011;3963;42.658;23.298;2023-10-19T01:48:19;19.53;;;11.40;;
7835;SDS011;3963;42.658;23.298;2023-10-19T01:50:48;14.13;;;9.60;;
7835;SDS011;3963;42.658;23.298;2023-10-19T01:53:18;18.33;;;10.67;;
7835;SDS011;3963;42.658;23.298;2023-10-19T01:55:46;17.83;;;10.37;;
7835;SDS011;3963;42.658;23.298;2023-10-19T01:58:22;13.27;;;8.50;;
7835;SDS011;3963;42.658;23.298;2023-10-19T02:00:50;13.87;;;9.37;;
7835;SDS011;3963;42.658;23.298;2023-10-19T02:03:19;15.97;;;10.03;;
7835;SDS011;3963;42.658;23.298;2023-10-19T02:05:46;14.57;;;9.77;;
7835;SDS011;3963;42.658;23.298;2023-10-19T02:08:15;12.57;;;9.50;;
7835;SDS011;3963;42.658;23.298;2023-10-19T02:10:47;15.83;;;9.13;;
7835;SDS011;3963;42.658;23.298;2023-10-19T02:13:14;15.70;;;10.03;;
7835;SDS011;3963;42.658;23.298;2023-10-19T02:15:42;14.40;;;9.47;;
7835;SDS011;3963;42.658;23.298;2023-10-19T02:18:09;15.90;;;9.30;;
7835;SDS011;3963;42.658;23.298;2023-10-19T02:20:35;12.23;;;8.93;;
7835;SDS011;3963;42.658;23.298;2023-10-19T02:23:05;14.87;;;8.77;;
7835;SDS011;3963;42.658;23.298;2023-10-19T02:25:31;15.40;;;9.37;;
7835;SDS011;3963;42.658;23.298;2023-10-19T02:28:04;14.17;;;9.30;;
7835;SDS011;3963;42.658;23.298;2023-10-19T02:30:32;14.67;;;8.63;;
7835;SDS011;3963;42.658;23.298;2023-10-19T02:32:59;14.20;;;8.40;;
7835;SDS011;3963;42.658;23.298;2023-10-19T02:35:25;15.30;;;8.70;;
7835;SDS011;3963;42.658;23.298;2023-10-19T02:37:53;17.73;;;8.90;;
7835;SDS011;3963;42.658;23.298;2023-10-19T02:40:19;13.97;;;9.10;;
7835;SDS011;3963;42.658;23.298;2023-10-19T02:42:48;13.93;;;8.97;;
7835;SDS011;3963;42.658;23.298;2023-10-19T02:45:19;17.37;;;9.53;;
7835;SDS011;3963;42.658;23.298;2023-10-19T02:47:46;14.17;;;9.80;;
7835;SDS011;3963;42.658;23.298;2023-10-19T02:50:12;13.13;;;9.20;;
7835;SDS011;3963;42.658;23.298;2023-10-19T02:52:41;15.23;;;10.07;;
7835;SDS011;3963;42.658;23.298;2023-10-19T02:55:08;16.13;;;9.87;;
7835;SDS011;3963;42.658;23.298;2023-10-19T02:57:36;15.03;;;9.97;;
7835;SDS011;3963;42.658;23.298;2023-10-19T03:00:02;13.77;;;9.60;;
7835;SDS011;3963;42.658;23.298;2023-10-19T03:02:37;16.50;;;11.17;;
7835;SDS011;3963;42.658;23.298;2023-10-19T03:05:04;18.50;;;10.47;;
7835;SDS011;3963;42.658;23.298;2023-10-19T03:07:39;15.93;;;10.37;;
7835;SDS011;3963;42.658;23.298;2023-10-19T03:10:06;15.77;;;10.60;;
7835;SDS011;3963;42.658;23.298;2023-10-19T03:12:39;18.53;;;10.07;;
7835;SDS011;3963;42.658;23.298;2023-10-19T03:15:06;13.03;;;9.70;;
7835;SDS011;3963;42.658;23.298;2023-10-19T03:17:33;14.77;;;9.83;;
7835;SDS011;3963;42.658;23.298;2023-10-19T03:20:02;14.97;;;9.77;;
7835;SDS011;3963;42.658;23.298;2023-10-19T03:22:31;16.47;;;10.97;;
7835;SDS011;3963;42.658;23.298;2023-10-19T03:24:59;14.60;;;10.13;;
7835;SDS011;3963;42.658;23.298;2023-10-19T03:27:36;21.83;;;11.13;;
7835;SDS011;3963;42.658;23.298;2023-10-19T03:30:03;16.40;;;10.07;;
7835;SDS011;3963;42.658;23.298;2023-10-19T03:32:32;19.07;;;10.53;;
7835;SDS011;3963;42.658;23.298;2023-10-19T03:35:00;17.03;;;10.63;;
7835;SDS011;3963;42.658;23.298;2023-10-19T03:37:31;15.20;;;9.67;;
7835;SDS011;3963;42.658;23.298;2023-10-19T03:40:00;17.70;;;10.63;;
7835;SDS011;3963;42.658;23.298;2023-10-19T03:42:31;16.07;;;10.57;;
7835;SDS011;3963;42.658;23.298;2023-10-19T03:44:58;15.63;;;10.23;;
7835;SDS011;3963;42.658;23.298;2023-10-19T03:47:27;16.67;;;10.83;;
7835;SDS011;3963;42.658;23.298;2023-10-19T03:50:00;18.57;;;10.80;;
7835;SDS011;3963;42.658;23.298;2023-10-19T03:52:30;21.47;;;11.40;;
7835;SDS011;3963;42.658;23.298;2023-10-19T03:54:57;17.43;;;11.83;;
7835;SDS011;3963;42.658;23.298;2023-10-19T03:57:24;18.07;;;10.80;;
7835;SDS011;3963;42.658;23.298;2023-10-19T03:59:54;22.23;;;11.87;;
7835;SDS011;3963;42.658;23.298;2023-10-19T04:02:22;20.87;;;13.23;;
7835;SDS011;3963;42.658;23.298;2023-10-19T04:04:49;29.97;;;14.27;;
7835;SDS011;3963;42.658;23.298;2023-10-19T04:07:17;24.37;;;14.80;;
7835;SDS011;3963;42.658;23.298;2023-10-19T04:09:48;25.60;;;14.17;;
7835;SDS011;3963;42.658;23.298;2023-10-19T04:12:34;28.97;;;14.73;;
7835;SDS011;3963;42.658;23.298;2023-10-19T04:15:03;30.13;;;14.40;;
7835;SDS011;3963;42.658;23.298;2023-10-19T04:17:37;25.50;;;14.23;;
7835;SDS011;3963;42.658;23.298;2023-10-19T04:20:05;22.27;;;12.83;;
7835;SDS011;3963;42.658;23.298;2023-10-19T04:22:51;19.73;;;11.67;;
7835;SDS011;3963;42.658;23.298;2023-10-19T04:25:20;22.43;;;11.97;;
7835;SDS011;3963;42.658;23.298;2023-10-19T04:27:51;24.97;;;12.97;;
7835;SDS011;3963;42.658;23.298;2023-10-19T04:30:18;25.13;;;13.80;;
7835;SDS011;3963;42.658;23.298;2023-10-19T04:32:48;22.33;;;13.57;;
7835;SDS011;3963;42.658;23.298;2023-10-19T04:35:16;21.40;;;12.33;;
7835;SDS011;3963;42.658;23.298;2023-10-19T04:37:47;22.37;;;13.13;;
7835;SDS011;3963;42.658;23.298;2023-10-19T04:40:15;27.53;;;14.30;;
7835;SDS011;3963;42.658;23.298;2023-10-19T04:42:43;31.50;;;14.67;;
7835;SDS011;3963;42.658;23.298;2023-10-19T04:45:11;27.43;;;13.53;;
7835;SDS011;3963;42.658;23.298;2023-10-19T04:47:38;29.47;;;13.77;;
7835;SDS011;3963;42.658;23.298;2023-10-19T04:50:06;31.53;;;15.10;;
7835;SDS011;3963;42.658;23.298;2023-10-19T04:52:36;35.10;;;15.67;;
7835;SDS011;3963;42.658;23.298;2023-10-19T04:55:03;39.30;;;15.80;;
7835;SDS011;3963;42.658;23.298;2023-10-19T04:57:31;45.43;;;17.23;;
7835;SDS011;3963;42.658;23.298;2023-10-19T04:59:59;36.03;;;17.33;;
7835;SDS011;3963;42.658;23.298;2023-10-19T05:02:26;39.23;;;18.80;;
7835;SDS011;3963;42.658;23.298;2023-10-19T05:04:52;38.80;;;19.43;;
7835;SDS011;3963;42.658;23.298;2023-10-19T05:07:19;41.37;;;22.50;;
7835;SDS011;3963;42.658;23.298;2023-10-19T05:09:46;44.47;;;22.97;;
7835;SDS011;3963;42.658;23.298;2023-10-19T05:12:14;31.57;;;19.27;;
7835;SDS011;3963;42.658;23.298;2023-10-19T05:14:41;41.67;;;18.83;;
7835;SDS011;3963;42.658;23.298;2023-10-19T05:17:10;33.43;;;17.50;;
7835;SDS011;3963;42.658;23.298;2023-10-19T05:19:37;30.60;;;17.93;;
7835;SDS011;3963;42.658;23.298;2023-10-19T05:22:05;30.57;;;17.00;;
7835;SDS011;3963;42.658;23.298;2023-10-19T05:24:33;29.97;;;18.73;;
7835;SDS011;3963;42.658;23.298;2023-10-19T05:27:00;36.33;;;20.13;;
7835;SDS011;3963;42.658;23.298;2023-10-19T05:29:27;38.53;;;20.90;;
7835;SDS011;3963;42.658;23.298;2023-10-19T05:31:54;39.97;;;21.43;;
7835;SDS011;3963;42.658;23.298;2023-10-19T05:34:25;41.33;;;20.30;;
7835;SDS011;3963;42.658;23.298;2023-10-19T05:36:54;43.93;;;22.10;;
7835;SDS011;3963;42.658;23.298;2023-10-19T05:39:23;40.10;;;22.00;;
7835;SDS011;3963;42.658;23.298;2023-10-19T05:41:52;45.43;;;22.00;;
7835;SDS011;3963;42.658;23.298;2023-10-19T05:44:19;42.33;;;22.13;;
7835;SDS011;3963;42.658;23.298;2023-10-19T05:46:46;36.67;;;21.50;;
7835;SDS011;3963;42.658;23.298;2023-10-19T05:49:13;42.60;;;21.77;;
7835;SDS011;3963;42.658;23.298;2023-10-19T05:51:43;46.13;;;22.20;;
7835;SDS011;3963;42.658;23.298;2023-10-19T05:54:10;45.40;;;22.27;;
7835;SDS011;3963;42.658;23.298;2023-10-19T05:56:37;42.83;;;23.00;;
7835;SDS011;3963;42.658;23.298;2023-10-19T05:59:04;42.17;;;23.00;;
7835;SDS011;3963;42.658;23.298;2023-10-19T06:01:31;44.20;;;22.90;;
7835;SDS011;3963;42.658;23.298;2023-10-19T06:03:58;46.63;;;23.73;;
7835;SDS011;3963;42.658;23.298;2023-10-19T06:06:25;39.90;;;22.57;;
7835;SDS011;3963;42.658;23.298;2023-10-19T06:08:53;40.70;;;23.40;;
7835;SDS011;3963;42.658;23.298;2023-10-19T06:11:20;41.80;;;22.37;;
7835;SDS011;3963;42.658;23.298;2023-10-19T06:13:47;37.37;;;23.00;;
7835;SDS011;3963;42.658;23.298;2023-10-19T06:16:14;54.63;;;30.93;;
7835;SDS011;3963;42.658;23.298;2023-10-19T06:18:42;40.67;;;22.33;;
7835;SDS011;3963;42.658;23.298;2023-10-19T06:21:09;36.60;;;22.07;;
7835;SDS011;3963;42.658;23.298;2023-10-19T06:23:37;36.93;;;20.77;;
7835;SDS011;3963;42.658;23.298;2023-10-19T06:26:09;39.70;;;22.70;;
7835;SDS011;3963;42.658;23.298;2023-10-19T06:28:37;55.03;;;32.27;;
7835;SDS011;3963;42.658;23.298;2023-10-19T06:31:06;70.13;;;40.43;;
7835;SDS011;3963;42.658;23.298;2023-10-19T06:33:33;38.63;;;22.20;;
7835;SDS011;3963;42.658;23.298;2023-10-19T06:36:01;39.00;;;21.90;;
7835;SDS011;3963;42.658;23.298;2023-10-19T06:38:28;35.57;;;21.57;;
7835;SDS011;3963;42.658;23.298;2023-10-19T06:40:56;36.27;;;21.83;;
7835;SDS011;3963;42.658;23.298;2023-10-19T06:43:25;36.03;;;21.60;;
7835;SDS011;3963;42.658;23.298;2023-10-19T06:45:55;39.23;;;21.07;;
7835;SDS011;3963;42.658;23.298;2023-10-19T06:48:22;36.30;;;20.77;;
7835;SDS011;3963;42.658;23.298;2023-10-19T06:50:49;34.37;;;19.17;;
7835;SDS011;3963;42.658;23.298;2023-10-19T06:53:15;33.10;;;21.80;;
7835;SDS011;3963;42.658;23.298;2023-10-19T06:55:42;29.20;;;19.30;;
7835;SDS011;3963;42.658;23.298;2023-10-19T06:58:09;35.27;;;19.90;;
7835;SDS011;3963;42.658;23.298;2023-10-19T07:00:38;27.43;;;16.37;;
7835;SDS011;3963;42.658;23.298;2023-10-19T07:03:07;33.77;;;21.13;;
7835;SDS011;3963;42.658;23.298;2023-10-19T07:05:34;37.60;;;21.20;;
7835;SDS011;3963;42.658;23.298;2023-10-19T07:08:01;29.10;;;17.40;;
7835;SDS011;3963;42.658;23.298;2023-10-19T07:10:32;32.63;;;18.10;;
7835;SDS011;3963;42.658;23.298;2023-10-19T07:12:59;30.23;;;17.13;;
7835;SDS011;3963;42.658;23.298;2023-10-19T07:15:27;23.33;;;14.87;;
7835;SDS011;3963;42.658;23.298;2023-10-19T07:17:56;25.83;;;14.50;;
7835;SDS011;3963;42.658;23.298;2023-10-19T07:20:23;21.53;;;14.13;;
7835;SDS011;3963;42.658;23.298;2023-10-19T07:22:54;23.43;;;14.10;;
7835;SDS011;3963;42.658;23.298;2023-10-19T07:25:21;22.83;;;14.13;;
7835;SDS011;3963;42.658;23.298;2023-10-19T07:27:50;23.63;;;15.10;;
7835;SDS011;3963;42.658;23.298;2023-10-19T07:30:17;58.37;;;34.53;;
7835;SDS011;3963;42.658;23.298;2023-10-19T07:32:47;27.40;;;16.63;;
7835;SDS011;3963;42.658;23.298;2023-10-19T07:35:21;19.10;;;11.83;;
7835;SDS011;3963;42.658;23.298;2023-10-19T07:37:51;18.27;;;12.40;;
7835;SDS011;3963;42.658;23.298;2023-10-19T07:40:17;17.57;;;11.03;;
7835;SDS011;3963;42.658;23.298;2023-10-19T07:42:44;19.73;;;12.10;;
7835;SDS011;3963;42.658;23.298;2023-10-19T07:45:11;20.90;;;11.37;;
7835;SDS011;3963;42.658;23.298;2023-10-19T07:47:38;16.37;;;11.03;;
7835;SDS011;3963;42.658;23.298;2023-10-19T07:50:06;20.33;;;12.20;;
7835;SDS011;3963;42.658;23.298;2023-10-19T07:52:38;17.10;;;11.40;;
7835;SDS011;3963;42.658;23.298;2023-10-19T07:55:05;15.67;;;10.90;;
7835;SDS011;3963;42.658;23.298;2023-10-19T07:57:33;21.97;;;11.20;;
7835;SDS011;3963;42.658;23.298;2023-10-19T08:00:00;16.17;;;10.40;;
7835;SDS011;3963;42.658;23.298;2023-10-19T08:02:29;17.93;;;12.63;;
7835;SDS011;3963;42.658;23.298;2023-10-19T08:04:55;19.17;;;10.80;;
7835;SDS011;3963;42.658;23.298;2023-10-19T08:07:23;13.63;;;9.53;;
7835;SDS011;3963;42.658;23.298;2023-10-19T08:09:53;14.90;;;9.63;;
7835;SDS011;3963;42.658;23.298;2023-10-19T08:12:19;19.50;;;10.97;;
7835;SDS011;3963;42.658;23.298;2023-10-19T08:14:47;15.03;;;10.70;;
7835;SDS011;3963;42.658;23.298;2023-10-19T08:17:14;15.00;;;10.50;;
7835;SDS011;3963;42.658;23.298;2023-10-19T08:19:41;23.90;;;16.30;;
7835;SDS011;3963;42.658;23.298;2023-10-19T08:22:08;14.90;;;10.53;;
7835;SDS011;3963;42.658;23.298;2023-10-19T08:24:35;14.57;;;10.60;;
7835;SDS011;3963;42.658;23.298;2023-10-19T08:27:03;16.20;;;10.30;;
7835;SDS011;3963;42.658;23.298;2023-10-19T08:29:31;20.33;;;11.13;;
7835;SDS011;3963;42.658;23.298;2023-10-19T08:32:01;24.83;;;14.73;;
7835;SDS011;3963;42.658;23.298;2023-10-19T08:34:28;18.40;;;11.80;;
7835;SDS011;3963;42.658;23.298;2023-10-19T08:36:55;16.07;;;11.77;;
7835;SDS011;3963;42.658;23.298;2023-10-19T08:39:22;17.70;;;10.30;;
7835;SDS011;3963;42.658;23.298;2023-10-19T08:41:49;12.40;;;9.53;;
7835;SDS011;3963;42.658;23.298;2023-10-19T08:44:22;12.27;;;9.93;;
7835;SDS011;3963;42.658;23.298;2023-10-19T08:46:48;15.10;;;11.27;;
7835;SDS011;3963;42.658;23.298;2023-10-19T08:49:17;14.43;;;11.07;;
7835;SDS011;3963;42.658;23.298;2023-10-19T08:51:45;17.73;;;9.83;;
7835;SDS011;3963;42.658;23.298;2023-10-19T08:54:13;12.30;;;9.27;;
7835;SDS011;3963;42.658;23.298;2023-10-19T08:56:40;15.40;;;10.03;;
7835;SDS011;3963;42.658;23.298;2023-10-19T08:59:08;13.83;;;10.03;;
7835;SDS011;3963;42.658;23.298;2023-10-19T09:01:37;15.13;;;11.03;;
7835;SDS011;3963;42.658;23.298;2023-10-19T09:04:04;14.77;;;10.93;;
7835;SDS011;3963;42.658;23.298;2023-10-19T09:06:33;14.30;;;10.50;;
7835;SDS011;3963;42.658;23.298;2023-10-19T09:09:06;16.27;;;10.37;;
7835;SDS011;3963;42.658;23.298;2023-10-19T09:11:34;15.90;;;9.50;;
7835;SDS011;3963;42.658;23.298;2023-10-19T09:14:02;12.43;;;9.43;;
7835;SDS011;3963;42.658;23.298;2023-10-19T09:16:31;10.37;;;7.53;;
7835;SDS011;3963;42.658;23.298;2023-10-19T09:19:00;14.33;;;8.13;;
7835;SDS011;3963;42.658;23.298;2023-10-19T09:21:27;12.77;;;9.70;;
7835;SDS011;3963;42.658;23.298;2023-10-19T09:23:54;11.03;;;9.00;;
7835;SDS011;3963;42.658;23.298;2023-10-19T09:26:23;14.23;;;10.17;;
7835;SDS011;3963;42.658;23.298;2023-10-19T09:28:51;15.10;;;10.60;;
7835;SDS011;3963;42.658;23.298;2023-10-19T09:31:19;16.93;;;10.27;;
7835;SDS011;3963;42.658;23.298;2023-10-19T09:33:47;14.77;;;9.60;;
7835;SDS011;3963;42.658;23.298;2023-10-19T09:36:15;16.33;;;10.37;;
7835;SDS011;3963;42.658;23.298;2023-10-19T09:38:45;13.17;;;9.73;;
7835;SDS011;3963;42.658;23.298;2023-10-19T09:41:13;12.07;;;8.47;;
7835;SDS011;3963;42.658;23.298;2023-10-19T09:43:43;11.37;;;7.83;;
7835;SDS011;3963;42.658;23.298;2023-10-19T09:46:11;10.67;;;6.83;;
7835;SDS011;3963;42.658;23.298;2023-10-19T09:48:42;9.23;;;6.23;;
7835;SDS011;3963;42.658;23.298;2023-10-19T09:51:13;9.43;;;6.63;;
7835;SDS011;3963;42.658;23.298;2023-10-19T09:53:44;10.93;;;6.53;;
7835;SDS011;3963;42.658;23.298;2023-10-19T09:56:15;9.73;;;7.17;;
7835;SDS011;3963;42.658;23.298;2023-10-19T09:58:46;9.53;;;6.73;;
7835;SDS011;3963;42.658;23.298;2023-10-19T10:01:17;14.57;;;7.90;;
7835;SDS011;3963;42.658;23.298;2023-10-19T10:03:47;9.37;;;7.00;;
7835;SDS011;3963;42.658;23.298;2023-10-19T10:06:16;11.80;;;7.73;;
7835;SDS011;3963;42.658;23.298;2023-10-19T10:08:54;8.30;;;6.83;;
7835;SDS011;3963;42.658;23.298;2023-10-19T10:11:21;9.83;;;7.77;;
7835;SDS011;3963;42.658;23.298;2023-10-19T10:13:51;10.03;;;7.47;;
7835;SDS011;3963;42.658;23.298;2023-10-19T10:16:21;10.13;;;7.53;;
7835;SDS011;3963;42.658;23.298;2023-10-19T10:18:49;10.13;;;8.03;;
7835;SDS011;3963;42.658;23.298;2023-10-19T10:21:18;10.53;;;7.77;;
7835;SDS011;3963;42.658;23.298;2023-10-19T10:23:47;10.03;;;6.83;;
7835;SDS011;3963;42.658;23.298;2023-10-19T10:26:17;10.23;;;7.07;;
7835;SDS011;3963;42.658;23.298;2023-10-19T10:28:47;11.43;;;7.50;;
7835;SDS011;3963;42.658;23.298;2023-10-19T10:31:18;9.87;;;7.00;;
7835;SDS011;3963;42.658;23.298;2023-10-19T10:33:48;10.23;;;6.47;;
7835;SDS011;3963;42.658;23.298;2023-10-19T10:36:16;11.93;;;7.00;;
7835;SDS011;3963;42.658;23.298;2023-10-19T10:38:45;10.50;;;7.50;;
7835;SDS011;3963;42.658;23.298;2023-10-19T10:41:12;10.90;;;7.77;;
7835;SDS011;3963;42.658;23.298;2023-10-19T10:43:48;13.27;;;8.30;;
7835;SDS011;3963;42.658;23.298;2023-10-19T10:46:17;13.03;;;7.17;;
7835;SDS011;3963;42.658;23.298;2023-10-19T10:48:45;10.00;;;7.40;;
7835;SDS011;3963;42.658;23.298;2023-10-19T10:51:16;11.33;;;7.20;;
7835;SDS011;3963;42.658;23.298;2023-10-19T10:53:46;13.40;;;7.13;;
7835;SDS011;3963;42.658;23.298;2023-10-19T10:56:13;11.13;;;7.17;;
7835;SDS011;3963;42.658;23.298;2023-10-19T10:58:41;11.93;;;7.63;;
7835;SDS011;3963;42.658;23.298;2023-10-19T11:01:08;12.40;;;7.30;;
7835;SDS011;3963;42.658;23.298;2023-10-19T11:03:36;9.87;;;7.23;;
7835;SDS011;3963;42.658;23.298;2023-10-19T11:06:03;9.77;;;7.57;;
7835;SDS011;3963;42.658;23.298;2023-10-19T11:08:33;17.37;;;7.63;;
7835;SDS011;3963;42.658;23.298;2023-10-19T11:11:04;7.87;;;6.63;;
7835;SDS011;3963;42.658;23.298;2023-10-19T11:13:33;9.23;;;6.33;;
7835;SDS011;3963;42.658;23.298;2023-10-19T11:16:02;10.53;;;6.93;;
7835;SDS011;3963;42.658;23.298;2023-10-19T11:18:31;8.73;;;7.60;;
7835;SDS011;3963;42.658;23.298;2023-10-19T11:21:01;7.90;;;6.80;;
7835;SDS011;3963;42.658;23.298;2023-10-19T11:23:40;7.93;;;5.80;;
7835;SDS011;3963;42.658;23.298;2023-10-19T11:26:08;10.93;;;6.37;;
7835;SDS011;3963;42.658;23.298;2023-10-19T11:28:36;7.77;;;6.10;;
7835;SDS011;3963;42.658;23.298;2023-10-19T11:31:14;8.13;;;5.93;;
7835;SDS011;3963;42.658;23.298;2023-10-19T11:33:42;10.23;;;6.27;;
7835;SDS011;3963;42.658;23.298;2023-10-19T11:36:09;7.90;;;5.87;;
7835;SDS011;3963;42.658;23.298;2023-10-19T11:38:38;7.87;;;6.03;;
7835;SDS011;3963;42.658;23.298;2023-10-19T11:41:06;7.33;;;6.00;;
7835;SDS011;3963;42.658;23.298;2023-10-19T11:43:34;7.57;;;6.13;;
7835;SDS011;3963;42.658;23.298;2023-10-19T11:46:00;7.40;;;5.53;;
7835;SDS011;3963;42.658;23.298;2023-10-19T11:48:31;11.17;;;6.67;;
7835;SDS011;3963;42.658;23.298;2023-10-19T11:50:59;7.80;;;5.67;;
7835;SDS011;3963;42.658;23.298;2023-10-19T11:53:29;6.73;;;5.83;;
7835;SDS011;3963;42.658;23.298;2023-10-19T11:55:58;8.23;;;5.67;;
7835;SDS011;3963;42.658;23.298;2023-10-19T11:58:25;7.07;;;6.17;;
7835;SDS011;3963;42.658;23.298;2023-10-19T12:00:52;9.23;;;5.97;;
7835;SDS011;3963;42.658;23.298;2023-10-19T12:03:20;8.57;;;6.30;;
7835;SDS011;3963;42.658;23.298;2023-10-19T12:05:48;8.90;;;6.63;;
7835;SDS011;3963;42.658;23.298;2023-10-19T12:08:14;9.93;;;5.67;;
7835;SDS011;3963;42.658;23.298;2023-10-19T12:10:42;7.60;;;6.03;;
7835;SDS011;3963;42.658;23.298;2023-10-19T12:13:09;6.57;;;5.33;;
7835;SDS011;3963;42.658;23.298;2023-10-19T12:15:36;11.20;;;6.73;;
7835;SDS011;3963;42.658;23.298;2023-10-19T12:18:03;6.93;;;5.47;;
7835;SDS011;3963;42.658;23.298;2023-10-19T12:20:30;8.83;;;5.50;;
7835;SDS011;3963;42.658;23.298;2023-10-19T12:22:59;7.80;;;5.80;;
7835;SDS011;3963;42.658;23.298;2023-10-19T12:25:25;7.47;;;5.23;;
7835;SDS011;3963;42.658;23.298;2023-10-19T12:27:56;6.83;;;5.30;;
7835;SDS011;3963;42.658;23.298;2023-10-19T12:30:23;7.67;;;6.03;;
7835;SDS011;3963;42.658;23.298;2023-10-19T12:32:53;8.90;;;7.07;;
7835;SDS011;3963;42.658;23.298;2023-10-19T12:35:20;8.60;;;6.30;;
7835;SDS011;3963;42.658;23.298;2023-10-19T12:37:53;8.63;;;5.70;;
7835;SDS011;3963;42.658;23.298;2023-10-19T12:40:22;10.67;;;5.97;;
7835;SDS011;3963;42.658;23.298;2023-10-19T12:42:56;9.10;;;6.27;;
7835;SDS011;3963;42.658;23.298;2023-10-19T12:45:24;7.10;;;5.93;;
7835;SDS011;3963;42.658;23.298;2023-10-19T12:47:51;10.77;;;5.93;;
7835;SDS011;3963;42.658;23.298;2023-10-19T12:50:19;6.67;;;5.23;;
7835;SDS011;3963;42.658;23.298;2023-10-19T12:52:48;8.87;;;5.07;;
7835;SDS011;3963;42.658;23.298;2023-10-19T12:55:15;11.73;;;6.10;;
7835;SDS011;3963;42.658;23.298;2023-10-19T12:57:44;8.17;;;6.40;;
7835;SDS011;3963;42.658;23.298;2023-10-19T13:00:11;6.97;;;5.30;;
7835;SDS011;3963;42.658;23.298;2023-10-19T13:02:54;9.03;;;5.77;;
7835;SDS011;3963;42.658;23.298;2023-10-19T13:05:25;9.50;;;5.60;;
7835;SDS011;3963;42.658;23.298;2023-10-19T13:07:53;6.83;;;5.30;;
7835;SDS011;3963;42.658;23.298;2023-10-19T13:10:23;9.03;;;5.67;;
7835;SDS011;3963;42.658;23.298;2023-10-19T13:12:56;7.40;;;5.37;;
7835;SDS011;3963;42.658;23.298;2023-10-19T13:15:23;8.07;;;5.80;;
7835;SDS011;3963;42.658;23.298;2023-10-19T13:17:53;10.37;;;6.27;;
7835;SDS011;3963;42.658;23.298;2023-10-19T13:20:20;9.97;;;6.23;;
7835;SDS011;3963;42.658;23.298;2023-10-19T13:22:48;9.00;;;6.30;;
7835;SDS011;3963;42.658;23.298;2023-10-19T13:25:15;9.03;;;6.50;;
7835;SDS011;3963;42.658;23.298;2023-10-19T13:27:42;7.90;;;6.30;;
7835;SDS011;3963;42.658;23.298;2023-10-19T13:30:12;9.50;;;6.57;;
7835;SDS011;3963;42.658;23.298;2023-10-19T13:32:39;8.67;;;6.10;;
7835;SDS011;3963;42.658;23.298;2023-10-19T13:35:07;8.73;;;5.83;;
7835;SDS011;3963;42.658;23.298;2023-10-19T13:37:34;8.97;;;5.93;;
7835;SDS011;3963;42.658;23.298;2023-10-19T13:40:02;8.10;;;6.00;;
7835;SDS011;3963;42.658;23.298;2023-10-19T13:42:31;8.60;;;5.80;;
7835;SDS011;3963;42.658;23.298;2023-10-19T13:44:59;9.20;;;5.90;;
7835;SDS011;3963;42.658;23.298;2023-10-19T13:47:27;7.87;;;6.17;;
7835;SDS011;3963;42.658;23.298;2023-10-19T13:49:58;8.90;;;6.00;;
7835;SDS011;3963;42.658;23.298;2023-10-19T13:52:25;8.30;;;6.13;;
7835;SDS011;3963;42.658;23.298;2023-10-19T13:54:52;9.93;;;6.03;;
7835;SDS011;3963;42.658;23.298;2023-10-19T13:57:19;8.17;;;5.70;;
7835;SDS011;3963;42.658;23.298;2023-10-19T13:59:46;7.27;;;4.87;;
7835;SDS011;3963;42.658;23.298;2023-10-19T14:02:14;10.10;;;6.27;;
7835;SDS011;3963;42.658;23.298;2023-10-19T14:04:42;9.87;;;5.57;;
7835;SDS011;3963;42.658;23.298;2023-10-19T14:07:11;6.50;;;5.50;;
7835;SDS011;3963;42.658;23.298;2023-10-19T14:09:38;10.53;;;5.43;;
7835;SDS011;3963;42.658;23.298;2023-10-19T14:12:04;6.70;;;5.27;;
7835;SDS011;3963;42.658;23.298;2023-10-19T14:14:31;8.63;;;6.20;;
7835;SDS011;3963;42.658;23.298;2023-10-19T14:16:58;10.23;;;5.73;;
7835;SDS011;3963;42.658;23.298;2023-10-19T14:19:25;8.43;;;5.50;;
7835;SDS011;3963;42.658;23.298;2023-10-19T14:21:55;9.60;;;5.90;;
7835;SDS011;3963;42.658;23.298;2023-10-19T14:24:21;10.83;;;5.53;;
7835;SDS011;3963;42.658;23.298;2023-10-19T14:26:49;9.73;;;5.50;;
7835;SDS011;3963;42.658;23.298;2023-10-19T14:29:16;9.27;;;6.70;;
7835;SDS011;3963;42.658;23.298;2023-10-19T14:31:43;10.40;;;6.40;;
7835;SDS011;3963;42.658;23.298;2023-10-19T14:34:09;7.17;;;5.73;;
7835;SDS011;3963;42.658;23.298;2023-10-19T14:36:36;8.43;;;5.53;;
7835;SDS011;3963;42.658;23.298;2023-10-19T14:39:05;7.37;;;5.37;;
7835;SDS011;3963;42.658;23.298;2023-10-19T14:41:34;8.73;;;5.17;;
7835;SDS011;3963;42.658;23.298;2023-10-19T14:44:00;6.47;;;5.40;;
7835;SDS011;3963;42.658;23.298;2023-10-19T14:46:28;9.03;;;5.97;;
7835;SDS011;3963;42.658;23.298;2023-10-19T14:48:55;9.90;;;5.63;;
7835;SDS011;3963;42.658;23.298;2023-10-19T14:51:22;6.73;;;5.73;;
7835;SDS011;3963;42.658;23.298;2023-10-19T14:53:49;8.97;;;5.50;;